logo
Rechercher aéroport 
image banner adimage banner adimage banner ad
image banner ad

0CL4 - 700 North Brand

Situé à Glendale, United States

ICAO - 0CL4, IATA -

Données fournies par Airmate  

Information générale

Coordonnées: N34°9'26" W118°15'17"
Élévation : 770 feet MSL.
Variation magnétique : 14° East
Voir autres Aéroports à California

Données opérationnelles

Special qualification required
Heure actuelle UTC:
Heure actuelle locale:
Météo à : KBUR - Bob Hope ( 11 km )
METAR: KBUR 281053Z 35003KT 10SM CLR 23/13 A2989 RMK AO2 SLP108 T02330133
TAF: KBUR 280534Z 2806/2906 12006KT P6SM SKC FM281000 VRB03KT P6SM SKC FM282000 17008KT P6SM SKC FM290300 12006KT P6SM SKC
Voir NOTAMs / SUP AIP / TFR affectant cet aéroport [VIEW]
Fréquences de communication: [VIEW]

Pistes:

Coordonnées de l'aéroport

Adresse: Glendale United States

Vue satellite de 0CL4